Pat — WDG8790 — position and weather

sailwx.info

Track history (hours):
 
Tides and Currents Weather Stations Pressure Air Temp Water Temp Dewpoint Dewpoint Depression Visibility Wind Speed Wind Dir Waves Ship Positions

Pat

Owner: HARBOR DOCKING & TOWING CO. LLC, Houston, TX. More information available from US FCC via Universal Licensing System and Coast Guard Vessel Documentation Center.

Last reported at 2018-Feb-25 19:30 UTC. Time now 2018-Feb-25 19:58 UTC.
Position N 30°13' W 093°15'.

Length 32 m.

Type: Towing. MMSI: 367581090.

Date/timePositionNaut miles runAvg speedWind from/ knotsBaromVisibWave heightAir tempDewpointWater temp
2018-Feb-25 19:30N 30°13' W 093°15'1 1.0
2018-Feb-25 19:01N 30°13' W 093°16'1 1.9
2018-Feb-25 18:31N 30°12' W 093°17'1 2.2
2018-Feb-25 17:59N 30°13' W 093°15'0 0.0
2018-Feb-25 17:29N 30°13' W 093°15'0 0.0
2018-Feb-25 17:01N 30°13' W 093°15'0 0.0
2018-Feb-25 16:30N 30°13' W 093°15'0 0.0
2018-Feb-25 16:01N 30°13' W 093°15'0 0.0
2018-Feb-25 15:30N 30°13' W 093°15'0 0.0
2018-Feb-25 15:01N 30°13' W 093°15'0 0.0
2018-Feb-25 14:31N 30°13' W 093°15'0 0.0
2018-Feb-25 14:00N 30°13' W 093°15'0 0.0
2018-Feb-25 13:30N 30°13' W 093°15'0 0.0
2018-Feb-25 13:01N 30°13' W 093°15'0 0.0
2018-Feb-25 12:30N 30°13' W 093°15'0 0.0
2018-Feb-25 12:00N 30°13' W 093°15'0 0.0
2018-Feb-25 11:29N 30°13' W 093°15'0 0.0
2018-Feb-25 11:00N 30°13' W 093°15'3 5.7
2018-Feb-25 10:31N 30°11' W 093°18'1 1.0
2018-Feb-25 10:00N 30°11' W 093°19'0 0.0
2018-Feb-25 09:31N 30°11' W 093°19'1 2.3
2018-Feb-25 09:00N 30°12' W 093°18'2 4.3
2018-Feb-25 08:28N 30°13' W 093°16'0 0.3
2018-Feb-25 08:01N 30°13' W 093°15'0 0.0
2018-Feb-25 07:31N 30°13' W 093°15'3 6.6
2018-Feb-25 07:00N 30°11' W 093°18'1 2.2
2018-Feb-25 06:30N 30°10' W 093°19'3 5.0
2018-Feb-25 06:00N 30°12' W 093°17'2 3.6
2018-Feb-25 05:31N 30°13' W 093°15'0 0.3
2018-Feb-25 05:00N 30°13' W 093°15'0 0.0
2018-Feb-25 04:30N 30°13' W 093°15'0 0.0
2018-Feb-25 03:59N 30°13' W 093°15'0 0.0
2018-Feb-25 03:29N 30°13' W 093°15'0 0.0
2018-Feb-25 03:01N 30°13' W 093°15'0 0.0
2018-Feb-25 02:30N 30°13' W 093°15'0 0.0
2018-Feb-25 02:00N 30°13' W 093°15'0 0.5
2018-Feb-25 01:29N 30°13' W 093°15'1 1.6
2018-Feb-25 01:00N 30°12' W 093°16'2 5.1
2018-Feb-25 00:31N 30°11' W 093°19'2 4.3
2018-Feb-25 00:00N 30°09' W 093°20'1 2.2
2018-Feb-24 23:31N 30°08' W 093°20'1 2.3
2018-Feb-24 23:01N 30°09' W 093°20'4 8.3
2018-Feb-24 22:31N 30°12' W 093°17'1 2.5
2018-Feb-24 22:01N 30°13' W 093°15'0 0.0
2018-Feb-24 21:29N 30°13' W 093°15'0 0.0
2018-Feb-24 21:00N 30°13' W 093°15'0 0.0
2018-Feb-24 20:30N 30°13' W 093°15'0 0.0
2018-Feb-24 20:00N 30°13' W 093°15'0 0.0
2018-Feb-24 19:30N 30°13' W 093°15'0 0.0
2018-Feb-24 19:00N 30°13' W 093°15'0 0.0
2018-Feb-24 18:30N 30°13' W 093°15'0 0.0
2018-Feb-24 18:00N 30°13' W 093°15'0 0.0
2018-Feb-24 17:28N 30°13' W 093°15'0 0.0
2018-Feb-24 17:00N 30°13' W 093°15'1 1.7
2018-Feb-24 16:30N 30°12' W 093°16'4 8.3
2018-Feb-24 16:01N 30°09' W 093°20'2 3.9
2018-Feb-24 15:30N 30°11' W 093°18'1 1.4
2018-Feb-24 15:01N 30°12' W 093°18'1 2.9
2018-Feb-24 14:31N 30°12' W 093°16'1 1.8
2018-Feb-24 14:01N 30°13' W 093°15'0 0.0
2018-Feb-24 13:31N 30°13' W 093°15'0 0.0
2018-Feb-24 12:59N 30°13' W 093°15'0 0.0
2018-Feb-24 12:30N 30°13' W 093°15'0 0.0
2018-Feb-24 12:00N 30°13' W 093°15'0 0.0
2018-Feb-24 11:30N 30°13' W 093°15'0 0.0
2018-Feb-24 11:01N 30°13' W 093°15'0 0.0
2018-Feb-24 10:31N 30°13' W 093°15'0 0.0
2018-Feb-24 10:00N 30°13' W 093°15'0 0.0
2018-Feb-24 09:31N 30°13' W 093°15'0 0.0
2018-Feb-24 09:01N 30°13' W 093°15'0 0.0
2018-Feb-24 08:28N 30°13' W 093°15'0 0.0
2018-Feb-24 08:00N 30°13' W 093°15'0 0.0
2018-Feb-24 07:30N 30°13' W 093°15'0 0.0
2018-Feb-24 07:00N 30°13' W 093°15'0 0.0
2018-Feb-24 06:31N 30°13' W 093°15'0 0.0
2018-Feb-24 06:00N 30°13' W 093°15'0 0.0
2018-Feb-24 05:30N 30°13' W 093°15'0 0.0
2018-Feb-24 05:01N 30°13' W 093°15'0 0.0
2018-Feb-24 04:31N 30°13' W 093°15'0 0.0
2018-Feb-24 04:01N 30°13' W 093°15'0 0.0
2018-Feb-24 03:29N 30°13' W 093°15'0 0.0
2018-Feb-24 03:00N 30°13' W 093°15'0 0.0
2018-Feb-24 02:30N 30°13' W 093°15'0 0.0
2018-Feb-24 02:01N 30°13' W 093°15'0 0.0
2018-Feb-24 01:29N 30°13' W 093°15'0 0.0
2018-Feb-24 00:59N 30°13' W 093°15'0 0.0
2018-Feb-24 00:30N 30°13' W 093°15'0 0.0
2018-Feb-23 23:51N 30°13' W 093°15'0 0.0
2018-Feb-23 23:27N 30°13' W 093°15'0 0.0
2018-Feb-23 19:07N 30°13' W 093°15'0 0.0
2018-Feb-23 18:41N 30°13' W 093°15'0 0.0
2018-Feb-23 18:15N 30°13' W 093°15'0 0.0
2018-Feb-23 04:52N 30°13' W 093°15'0 0.0
2018-Feb-23 04:30N 30°13' W 093°15'0 0.0
2018-Feb-23 03:58N 30°13' W 093°15'0 0.0
2018-Feb-23 03:30N 30°13' W 093°15'0 0.0
2018-Feb-23 02:54N 30°13' W 093°15'0 0.0
2018-Feb-23 02:24N 30°13' W 093°15'0 0.5
2018-Feb-23 01:58N 30°13' W 093°15'1 1.2
2018-Feb-23 01:20N 30°12' W 093°16'0 0.5
2018-Feb-23 00:56N 30°12' W 093°16'1 1.6
2018-Feb-23 00:18N 30°13' W 093°15'0 0.0
2018-Feb-23 00:00N 30°13' W 093°15'0 0.0
2018-Feb-22 23:28N 30°13' W 093°15'0 0.0
2018-Feb-22 22:56N 30°13' W 093°15'0 0.0
2018-Feb-22 22:30N 30°13' W 093°15'0 0.0
2018-Feb-22 04:22N 30°13' W 093°15'0 0.0
2018-Feb-22 03:36N 30°13' W 093°15'0 0.0
2018-Feb-22 00:31N 30°13' W 093°15'0 0.0
2018-Feb-21 20:05N 30°13' W 093°15'0 0.0
2018-Feb-21 19:22N 30°13' W 093°15'0 0.0
2018-Feb-21 19:00N 30°13' W 093°15'0 0.0
2018-Feb-21 18:28N 30°13' W 093°15'0 0.0
2018-Feb-21 18:01N 30°13' W 093°15'0 0.0
2018-Feb-21 17:30N 30°13' W 093°15'0 0.0
2018-Feb-21 17:01N 30°13' W 093°15'0 0.0
2018-Feb-21 16:31N 30°13' W 093°15'0 0.0
2018-Feb-21 16:01N 30°13' W 093°15'0 0.0
2018-Feb-21 15:31N 30°13' W 093°15'0 0.0
2018-Feb-21 15:01N 30°13' W 093°15'0 0.0
2018-Feb-21 14:31N 30°13' W 093°15'0 0.0
2018-Feb-21 14:01N 30°13' W 093°15'0 0.0
2018-Feb-21 13:31N 30°13' W 093°15'0 0.0
2018-Feb-21 13:01N 30°13' W 093°15'0 0.0
2018-Feb-21 12:30N 30°13' W 093°15'0 0.0
2018-Feb-21 12:00N 30°13' W 093°15'0 0.0
2018-Feb-21 11:31N 30°13' W 093°15'0 0.0
2018-Feb-21 11:01N 30°13' W 093°15'0 0.0
2018-Feb-21 10:30N 30°13' W 093°15'0 0.0
2018-Feb-21 10:01N 30°13' W 093°15'0 0.0
2018-Feb-21 09:31N 30°13' W 093°15'0 0.0
2018-Feb-21 09:01N 30°13' W 093°15'0 0.0
2018-Feb-21 08:30N 30°13' W 093°15'0 0.0
2018-Feb-21 08:01N 30°13' W 093°15'0 0.0
2018-Feb-21 07:31N 30°13' W 093°15'0 0.0
2018-Feb-21 07:01N 30°13' W 093°15'0 0.0
2018-Feb-21 06:31N 30°13' W 093°15'0 0.0
2018-Feb-21 06:01N 30°13' W 093°15'0 0.0
2018-Feb-21 05:31N 30°13' W 093°15'0 0.0
2018-Feb-21 05:01N 30°13' W 093°15'0 0.0
2018-Feb-21 04:30N 30°13' W 093°15'0 0.8
2018-Feb-21 03:59N 30°13' W 093°15'0 0.5
2018-Feb-21 03:31N 30°13' W 093°16'3 5.2
2018-Feb-21 03:01N 30°11' W 093°18'2 4.9
2018-Feb-21 02:31N 30°09' W 093°20'1 2.8
2018-Feb-21 02:01N 30°08' W 093°20'2 3.3
2018-Feb-21 01:31N 30°10' W 093°19'4 8.8
2018-Feb-21 01:00N 30°13' W 093°16'0 0.4
2018-Feb-21 00:25N 30°13' W 093°15'0 0.0
2018-Feb-21 00:00N 30°13' W 093°15'0 0.0
2018-Feb-20 23:29N 30°13' W 093°15'0 0.7
2018-Feb-20 23:01N 30°13' W 093°16'3 6.9
2018-Feb-20 22:31N 30°11' W 093°19'0 0.1
2018-Feb-20 22:01N 30°11' W 093°19'1 1.9
2018-Feb-20 21:31N 30°12' W 093°18'2 4.4
2018-Feb-20 21:01N 30°13' W 093°16'0 0.9
2018-Feb-20 20:30N 30°13' W 093°15'0 0.8
2018-Feb-20 20:01N 30°13' W 093°15'0 0.0
2018-Feb-20 19:30N 30°13' W 093°15'0 0.0
2018-Feb-20 19:00N 30°13' W 093°15'0 0.0
2018-Feb-20 18:30N 30°13' W 093°15'0 0.0
2018-Feb-20 18:00N 30°13' W 093°15'0 0.0
2018-Feb-20 17:30N 30°13' W 093°15'0 0.0
2018-Feb-20 17:00N 30°13' W 093°15'0 0.0
2018-Feb-20 16:30N 30°13' W 093°15'0 0.0
2018-Feb-20 16:01N 30°13' W 093°15'0 0.0
2018-Feb-20 15:31N 30°13' W 093°15'0 0.0
2018-Feb-20 15:01N 30°13' W 093°15'0 0.0
2018-Feb-20 14:31N 30°13' W 093°15'0 0.0
2018-Feb-20 14:01N 30°13' W 093°15'0 0.0
2018-Feb-20 13:30N 30°13' W 093°15'0 0.0
2018-Feb-20 13:01N 30°13' W 093°15'0 0.0
2018-Feb-20 12:31N 30°13' W 093°15'0 0.0
2018-Feb-20 12:00N 30°13' W 093°15'0 0.0
2018-Feb-20 11:31N 30°13' W 093°15'0 0.0
2018-Feb-20 11:00N 30°13' W 093°15'0 0.0
2018-Feb-20 10:31N 30°13' W 093°15'0 0.0
2018-Feb-20 10:01N 30°13' W 093°15'0 0.0
2018-Feb-20 09:30N 30°13' W 093°15'0 0.0
2018-Feb-20 09:00N 30°13' W 093°15'0 0.0
2018-Feb-20 08:31N 30°13' W 093°15'0 0.0
2018-Feb-20 07:48N 30°13' W 093°15'0 0.0
2018-Feb-20 07:31N 30°13' W 093°15'0 0.0
2018-Feb-20 07:01N 30°13' W 093°15'0 0.0
2018-Feb-20 06:31N 30°13' W 093°15'0 0.0
2018-Feb-20 06:00N 30°13' W 093°15'0 0.0
2018-Feb-20 05:31N 30°13' W 093°15'0 0.0
2018-Feb-20 05:01N 30°13' W 093°15'0 0.0
2018-Feb-20 04:31N 30°13' W 093°15'0 0.0
2018-Feb-20 04:01N 30°13' W 093°15'0 0.0
2018-Feb-20 03:31N 30°13' W 093°15'0 0.2
2018-Feb-20 03:01N 30°13' W 093°15'4 8.7
2018-Feb-20 02:31N 30°10' W 093°19'1 2.5
2018-Feb-20 02:01N 30°11' W 093°19'1 1.7
2018-Feb-20 01:31N 30°11' W 093°18'0 0.0
2018-Feb-20 01:01N 30°11' W 093°18'1 1.4
2018-Feb-20 00:30N 30°11' W 093°19'1 2.3
2018-Feb-20 00:01N 30°10' W 093°19'1 1.3
2018-Feb-19 23:30N 30°09' W 093°20'2 3.1
2018-Feb-19 23:00N 30°11' W 093°19'3 6.9
2018-Feb-19 22:30N 30°13' W 093°15'0 0.0
2018-Feb-19 22:01N 30°13' W 093°15'0 0.0
2018-Feb-19 21:30N 30°13' W 093°15'0 0.0
2018-Feb-19 21:01N 30°13' W 093°15'0 0.0
2018-Feb-19 20:30N 30°13' W 093°15'0 0.0
2018-Feb-19 19:57N 30°13' W 093°15'0 0.0
2018-Feb-19 19:30N 30°13' W 093°15'0 0.0
2018-Feb-19 19:00N 30°13' W 093°15'0 0.0
2018-Feb-19 18:31N 30°13' W 093°15'0 0.0
2018-Feb-19 18:00N 30°13' W 093°15'0 0.0
2018-Feb-19 17:30N 30°13' W 093°15'0 0.0
2018-Feb-19 17:00N 30°13' W 093°15'0 0.0
2018-Feb-19 16:31N 30°13' W 093°15'0 0.0
2018-Feb-19 16:00N 30°13' W 093°15'0 0.0
2018-Feb-19 15:31N 30°13' W 093°15'0 0.0
2018-Feb-19 15:01N 30°13' W 093°15'0 0.0
2018-Feb-19 14:26N 30°13' W 093°15'0 0.0
2018-Feb-19 13:55N 30°13' W 093°15'0 0.0
2018-Feb-19 13:30N 30°13' W 093°15'0 0.0
2018-Feb-19 13:00N 30°13' W 093°15'0 0.0
2018-Feb-19 12:31N 30°13' W 093°15'0 0.0
2018-Feb-19 12:01N 30°13' W 093°15'0 0.0
2018-Feb-19 11:30N 30°13' W 093°15'0 0.0
2018-Feb-19 11:00N 30°13' W 093°15'0 0.0
2018-Feb-19 10:30N 30°13' W 093°15'0 0.0
2018-Feb-19 10:01N 30°13' W 093°15'0 0.0
2018-Feb-19 09:28N 30°13' W 093°15'0 0.0
2018-Feb-19 09:00N 30°13' W 093°15'0 0.0
2018-Feb-19 08:30N 30°13' W 093°15'0 0.0
2018-Feb-19 08:00N 30°13' W 093°15'0 0.0
2018-Feb-19 07:30N 30°13' W 093°15'0 0.0
2018-Feb-19 07:00N 30°13' W 093°15'0 0.0
2018-Feb-19 06:31N 30°13' W 093°15'0 0.0
2018-Feb-19 06:00N 30°13' W 093°15'0 0.0
2018-Feb-19 05:31N 30°13' W 093°15'0 0.0
2018-Feb-19 05:01N 30°13' W 093°15'0 0.0
2018-Feb-19 04:31N 30°13' W 093°15'0 0.0
2018-Feb-19 04:00N 30°13' W 093°15'0 0.0
2018-Feb-19 03:31N 30°13' W 093°15'0 0.0
2018-Feb-19 03:00N 30°13' W 093°15'0 0.0
2018-Feb-19 02:30N 30°13' W 093°15'0 0.0
2018-Feb-19 02:01N 30°13' W 093°15'0 0.0
2018-Feb-19 01:30N 30°13' W 093°15'0 0.0
2018-Feb-19 01:01N 30°13' W 093°15'0 0.0
2018-Feb-19 00:30N 30°13' W 093°15'0 0.0
2018-Feb-19 00:01N 30°13' W 093°15'0 0.0
2018-Feb-18 23:30N 30°13' W 093°15'0 0.0
2018-Feb-18 23:01N 30°13' W 093°15'0 0.0
2018-Feb-18 22:30N 30°13' W 093°15'0 0.0
2018-Feb-18 22:01N 30°13' W 093°15'0 0.0
2018-Feb-18 21:30N 30°13' W 093°15'0 0.0
2018-Feb-18 21:01N 30°13' W 093°15'0 0.0
2018-Feb-18 20:31N 30°13' W 093°15'0 0.0
2018-Feb-18 20:01N 30°13' W 093°15'0 0.0
2018-Feb-18 19:31N 30°13' W 093°15'0 0.0
2018-Feb-18 19:01N 30°13' W 093°15'0 0.0
2018-Feb-18 18:30N 30°13' W 093°15'0 0.0
2018-Feb-18 18:00N 30°13' W 093°15'0 0.0
2018-Feb-18 17:31N 30°13' W 093°15'1 1.2
2018-Feb-18 17:01N 30°12' W 093°16'1 2.4
2018-Feb-18 16:30N 30°14' W 093°16'1 1.1
2018-Feb-18 16:01N 30°14' W 093°15'1 1.9
2018-Feb-18 15:31N 30°13' W 093°15'0 0.0
2018-Feb-18 15:01N 30°13' W 093°15'0 0.0
2018-Feb-18 14:31N 30°13' W 093°15'0 0.0
2018-Feb-18 14:01N 30°13' W 093°15'0 0.0
2018-Feb-18 13:30N 30°13' W 093°15'0 0.0
2018-Feb-18 13:01N 30°13' W 093°15'0 0.0
2018-Feb-18 12:31N 30°13' W 093°15'0 0.0
2018-Feb-18 12:01N 30°13' W 093°15'0 0.0
2018-Feb-18 11:31N 30°13' W 093°15'0 0.0
2018-Feb-18 11:01N 30°13' W 093°15'0 0.0
2018-Feb-18 10:31N 30°13' W 093°15'0 0.0
2018-Feb-18 10:00N 30°13' W 093°15'0 0.0
2018-Feb-18 09:30N 30°13' W 093°15'0 0.0
2018-Feb-18 09:00N 30°13' W 093°15'0 0.0
2018-Feb-18 08:30N 30°13' W 093°15'0 0.0
2018-Feb-18 08:01N 30°13' W 093°15'0 0.0
2018-Feb-18 07:31N 30°13' W 093°15'0 0.0
2018-Feb-18 07:01N 30°13' W 093°15'0 0.0
2018-Feb-18 06:31N 30°13' W 093°15'0 0.0
2018-Feb-18 06:01N 30°13' W 093°15'0 0.0
2018-Feb-18 05:31N 30°13' W 093°15'0 0.0
2018-Feb-18 05:01N 30°13' W 093°15'0 0.0
2018-Feb-18 04:30N 30°13' W 093°15'0 0.0
2018-Feb-18 04:01N 30°13' W 093°15'0 0.0
2018-Feb-18 03:31N 30°13' W 093°15'0 0.0
2018-Feb-18 03:00N 30°13' W 093°15'3 6.8
2018-Feb-18 02:30N 30°11' W 093°19'2 3.9
2018-Feb-18 02:01N 30°09' W 093°20'0 0.0
2018-Feb-18 01:31N 30°09' W 093°20'1 1.2
2018-Feb-18 01:01N 30°09' W 093°20'3 5.2
2018-Feb-18 00:30N 30°06' W 093°20'3 5.9
2018-Feb-18 00:01N 30°03' W 093°20'2 3.5
2018-Feb-17 23:30N 30°05' W 093°20'4 8.9
2018-Feb-17 23:00N 30°09' W 093°20'5 9.0
2018-Feb-17 22:30N 30°12' W 093°16'1 1.5
2018-Feb-17 22:00N 30°13' W 093°15'0 0.3
2018-Feb-17 21:30N 30°13' W 093°16'1 2.6
2018-Feb-17 21:00N 30°12' W 093°17'0 0.6
2018-Feb-17 20:31N 30°12' W 093°16'1 1.7
2018-Feb-17 20:00N 30°13' W 093°15'0 0.0
2018-Feb-17 19:30N 30°13' W 093°15'0 0.0
2018-Feb-17 18:59N 30°13' W 093°15'0 0.0
2018-Feb-17 18:30N 30°13' W 093°15'0 0.0
2018-Feb-17 18:00N 30°13' W 093°15'0 0.0
2018-Feb-17 17:28N 30°13' W 093°15'0 0.0
2018-Feb-17 17:00N 30°13' W 093°15'0 0.0
2018-Feb-17 16:30N 30°13' W 093°15'0 0.0
2018-Feb-17 16:01N 30°13' W 093°15'0 0.0
2018-Feb-17 15:30N 30°13' W 093°15'0 0.0
2018-Feb-17 15:00N 30°13' W 093°15'0 0.0
2018-Feb-17 14:31N 30°13' W 093°15'0 0.0
2018-Feb-17 14:00N 30°13' W 093°15'0 0.0
2018-Feb-17 13:31N 30°13' W 093°15'0 0.0
2018-Feb-17 13:00N 30°13' W 093°15'0 0.0
2018-Feb-17 12:30N 30°13' W 093°15'0 0.0
2018-Feb-17 12:00N 30°13' W 093°15'0 0.0
2018-Feb-17 11:30N 30°13' W 093°15'0 0.0
2018-Feb-17 11:00N 30°13' W 093°15'0 0.0
2018-Feb-17 10:30N 30°13' W 093°15'0 0.0
2018-Feb-17 10:00N 30°13' W 093°15'0 0.0
2018-Feb-17 09:30N 30°13' W 093°15'0 0.0
2018-Feb-17 08:59N 30°13' W 093°15'0 0.0
2018-Feb-17 08:30N 30°13' W 093°15'0 0.0
2018-Feb-17 08:00N 30°13' W 093°15'0 0.0
2018-Feb-17 07:30N 30°13' W 093°15'0 0.0
2018-Feb-17 07:00N 30°13' W 093°15'0 0.0
2018-Feb-17 06:30N 30°13' W 093°15'0 0.0
2018-Feb-17 06:00N 30°13' W 093°15'0 0.0
2018-Feb-17 05:30N 30°13' W 093°15'0 0.0
2018-Feb-17 04:59N 30°13' W 093°15'0 0.0
2018-Feb-17 04:30N 30°13' W 093°15'0 0.0
2018-Feb-17 04:00N 30°13' W 093°15'0 0.0
2018-Feb-17 03:30N 30°13' W 093°15'0 0.0
2018-Feb-17 03:00N 30°13' W 093°15'0 0.0
2018-Feb-17 02:30N 30°13' W 093°15'0 0.0
2018-Feb-17 02:00N 30°13' W 093°15'0 0.0
2018-Feb-17 01:28N 30°13' W 093°15'0 0.0
2018-Feb-17 01:01N 30°13' W 093°15'0 0.0
2018-Feb-17 00:31N 30°13' W 093°15'0 0.0
2018-Feb-16 23:59N 30°13' W 093°15'0 0.0
2018-Feb-16 23:17N 30°13' W 093°15'0 0.0
2018-Feb-16 23:00N 30°13' W 093°15'0 0.0
2018-Feb-16 22:29N 30°13' W 093°15'0 0.0
2018-Feb-16 22:00N 30°13' W 093°15'0 0.0
2018-Feb-16 21:31N 30°13' W 093°15'0 0.0
2018-Feb-16 20:59N 30°13' W 093°15'3 6.9
2018-Feb-16 20:30N 30°11' W 093°19'1 1.6
2018-Feb-16 20:01N 30°11' W 093°18'0 0.0
2018-Feb-16 19:31N 30°11' W 093°18'1 2.0
2018-Feb-16 19:00N 30°11' W 093°19'1 2.3
2018-Feb-16 18:31N 30°11' W 093°18'0 0.3
2018-Feb-16 18:01N 30°12' W 093°18'0 0.2
2018-Feb-16 17:31N 30°12' W 093°18'3 5.3
2018-Feb-16 17:01N 30°09' W 093°20'0 0.4
2018-Feb-16 16:31N 30°09' W 093°20'2 4.8
2018-Feb-16 16:01N 30°11' W 093°18'3 5.3
2018-Feb-16 15:30N 30°13' W 093°15'0 0.0
2018-Feb-16 15:00N 30°13' W 093°15'0 0.0
2018-Feb-16 14:29N 30°13' W 093°15'0 0.0
2018-Feb-16 14:00N 30°13' W 093°15'0 0.0
2018-Feb-16 13:30N 30°13' W 093°15'0 0.0
2018-Feb-16 13:00N 30°13' W 093°15'0 0.0
2018-Feb-16 12:30N 30°13' W 093°15'0 0.0
2018-Feb-16 12:00N 30°13' W 093°15'0 0.0
2018-Feb-16 11:30N 30°13' W 093°15'0 0.0
2018-Feb-16 11:00N 30°13' W 093°15'0 0.0
2018-Feb-16 10:30N 30°13' W 093°15'0 0.0
2018-Feb-16 10:00N 30°13' W 093°15'0 0.0
2018-Feb-16 09:30N 30°13' W 093°15'0 0.0
2018-Feb-16 09:00N 30°13' W 093°15'0 0.0
2018-Feb-16 08:30N 30°13' W 093°15'0 0.0
2018-Feb-16 08:00N 30°13' W 093°15'0 0.0
2018-Feb-16 07:30N 30°13' W 093°15'0 0.0
2018-Feb-16 07:00N 30°13' W 093°15'0 0.0
2018-Feb-16 06:29N 30°13' W 093°15'0 0.0
2018-Feb-16 05:59N 30°13' W 093°15'0 0.0
2018-Feb-16 05:28N 30°13' W 093°15'0 0.0
2018-Feb-16 04:55N 30°13' W 093°15'0 0.0
2018-Feb-16 04:29N 30°13' W 093°15'0 0.0
2018-Feb-16 04:00N 30°13' W 093°15'0 0.0
2018-Feb-16 03:30N 30°13' W 093°15'0 0.0
2018-Feb-16 03:01N 30°13' W 093°15'0 0.0
2018-Feb-16 02:30N 30°13' W 093°15'0 0.0
2018-Feb-16 02:00N 30°13' W 093°15'0 0.0
2018-Feb-16 01:30N 30°13' W 093°15'0 0.0
2018-Feb-16 01:00N 30°13' W 093°15'0 0.0
2018-Feb-16 00:29N 30°13' W 093°15'0 0.0
2018-Feb-15 23:56N 30°13' W 093°15'0 0.0
2018-Feb-15 23:30N 30°13' W 093°15'0 0.0
2018-Feb-15 23:00N 30°13' W 093°15'0 0.0
2018-Feb-15 22:28N 30°13' W 093°15'0 0.0
2018-Feb-15 22:01N 30°13' W 093°15'0 0.0
2018-Feb-15 21:30N 30°13' W 093°15'0 0.0
2018-Feb-15 21:00N 30°13' W 093°15'0 0.0
2018-Feb-15 20:27N 30°13' W 093°15'0 0.0
2018-Feb-15 20:00N 30°13' W 093°15'  
Track history (hours):
 
Tides and Currents Weather Stations Pressure Air Temp Water Temp Dewpoint Dewpoint Depression Visibility Wind Speed Wind Dir Waves Ship Positions

Pat

Owner: HARBOR DOCKING & TOWING CO. LLC, Houston, TX. More information available from US FCC via Universal Licensing System and Coast Guard Vessel Documentation Center.

Last reported at 2018-Feb-25 19:30 UTC. Time now 2018-Feb-25 19:58 UTC.
Position N 30°13' W 093°15'.

Length 32 m.

Type: Towing. MMSI: 367581090.

Date/timePositionNaut miles runAvg speedWind from/ knotsBaromVisibWave heightAir tempDewpointWater temp
2018-Feb-25 19:30N 30°13' W 093°15'1 1.0
2018-Feb-25 19:01N 30°13' W 093°16'1 1.9
2018-Feb-25 18:31N 30°12' W 093°17'1 2.2
2018-Feb-25 17:59N 30°13' W 093°15'0 0.0
2018-Feb-25 17:29N 30°13' W 093°15'0 0.0
2018-Feb-25 17:01N 30°13' W 093°15'0 0.0
2018-Feb-25 16:30N 30°13' W 093°15'0 0.0
2018-Feb-25 16:01N 30°13' W 093°15'0 0.0
2018-Feb-25 15:30N 30°13' W 093°15'0 0.0
2018-Feb-25 15:01N 30°13' W 093°15'0 0.0
2018-Feb-25 14:31N 30°13' W 093°15'0 0.0
2018-Feb-25 14:00N 30°13' W 093°15'0 0.0
2018-Feb-25 13:30N 30°13' W 093°15'0 0.0
2018-Feb-25 13:01N 30°13' W 093°15'0 0.0
2018-Feb-25 12:30N 30°13' W 093°15'0 0.0
2018-Feb-25 12:00N 30°13' W 093°15'0 0.0
2018-Feb-25 11:29N 30°13' W 093°15'0 0.0
2018-Feb-25 11:00N 30°13' W 093°15'3 5.7
2018-Feb-25 10:31N 30°11' W 093°18'1 1.0
2018-Feb-25 10:00N 30°11' W 093°19'0 0.0
2018-Feb-25 09:31N 30°11' W 093°19'1 2.3
2018-Feb-25 09:00N 30°12' W 093°18'2 4.3
2018-Feb-25 08:28N 30°13' W 093°16'0 0.3
2018-Feb-25 08:01N 30°13' W 093°15'0 0.0
2018-Feb-25 07:31N 30°13' W 093°15'3 6.6
2018-Feb-25 07:00N 30°11' W 093°18'1 2.2
2018-Feb-25 06:30N 30°10' W 093°19'3 5.0
2018-Feb-25 06:00N 30°12' W 093°17'2 3.6
2018-Feb-25 05:31N 30°13' W 093°15'0 0.3
2018-Feb-25 05:00N 30°13' W 093°15'0 0.0
2018-Feb-25 04:30N 30°13' W 093°15'0 0.0
2018-Feb-25 03:59N 30°13' W 093°15'0 0.0
2018-Feb-25 03:29N 30°13' W 093°15'0 0.0
2018-Feb-25 03:01N 30°13' W 093°15'0 0.0
2018-Feb-25 02:30N 30°13' W 093°15'0 0.0
2018-Feb-25 02:00N 30°13' W 093°15'0 0.5
2018-Feb-25 01:29N 30°13' W 093°15'1 1.6
2018-Feb-25 01:00N 30°12' W 093°16'2 5.1
2018-Feb-25 00:31N 30°11' W 093°19'2 4.3
2018-Feb-25 00:00N 30°09' W 093°20'1 2.2
2018-Feb-24 23:31N 30°08' W 093°20'1 2.3
2018-Feb-24 23:01N 30°09' W 093°20'4 8.3
2018-Feb-24 22:31N 30°12' W 093°17'1 2.5
2018-Feb-24 22:01N 30°13' W 093°15'0 0.0
2018-Feb-24 21:29N 30°13' W 093°15'0 0.0
2018-Feb-24 21:00N 30°13' W 093°15'0 0.0
2018-Feb-24 20:30N 30°13' W 093°15'0 0.0
2018-Feb-24 20:00N 30°13' W 093°15'0 0.0
2018-Feb-24 19:30N 30°13' W 093°15'0 0.0
2018-Feb-24 19:00N 30°13' W 093°15'0 0.0
2018-Feb-24 18:30N 30°13' W 093°15'0 0.0
2018-Feb-24 18:00N 30°13' W 093°15'0 0.0
2018-Feb-24 17:28N 30°13' W 093°15'0 0.0
2018-Feb-24 17:00N 30°13' W 093°15'1 1.7
2018-Feb-24 16:30N 30°12' W 093°16'4 8.3
2018-Feb-24 16:01N 30°09' W 093°20'2 3.9
2018-Feb-24 15:30N 30°11' W 093°18'1 1.4
2018-Feb-24 15:01N 30°12' W 093°18'1 2.9
2018-Feb-24 14:31N 30°12' W 093°16'1 1.8
2018-Feb-24 14:01N 30°13' W 093°15'0 0.0
2018-Feb-24 13:31N 30°13' W 093°15'0 0.0
2018-Feb-24 12:59N 30°13' W 093°15'0 0.0
2018-Feb-24 12:30N 30°13' W 093°15'0 0.0
2018-Feb-24 12:00N 30°13' W 093°15'0 0.0
2018-Feb-24 11:30N 30°13' W 093°15'0 0.0
2018-Feb-24 11:01N 30°13' W 093°15'0 0.0
2018-Feb-24 10:31N 30°13' W 093°15'0 0.0
2018-Feb-24 10:00N 30°13' W 093°15'0 0.0
2018-Feb-24 09:31N 30°13' W 093°15'0 0.0
2018-Feb-24 09:01N 30°13' W 093°15'0 0.0
2018-Feb-24 08:28N 30°13' W 093°15'0 0.0
2018-Feb-24 08:00N 30°13' W 093°15'0 0.0
2018-Feb-24 07:30N 30°13' W 093°15'0 0.0
2018-Feb-24 07:00N 30°13' W 093°15'0 0.0
2018-Feb-24 06:31N 30°13' W 093°15'0 0.0
2018-Feb-24 06:00N 30°13' W 093°15'0 0.0
2018-Feb-24 05:30N 30°13' W 093°15'0 0.0
2018-Feb-24 05:01N 30°13' W 093°15'0 0.0
2018-Feb-24 04:31N 30°13' W 093°15'0 0.0
2018-Feb-24 04:01N 30°13' W 093°15'0 0.0
2018-Feb-24 03:29N 30°13' W 093°15'0 0.0
2018-Feb-24 03:00N 30°13' W 093°15'0 0.0
2018-Feb-24 02:30N 30°13' W 093°15'0 0.0
2018-Feb-24 02:01N 30°13' W 093°15'0 0.0
2018-Feb-24 01:29N 30°13' W 093°15'0 0.0
2018-Feb-24 00:59N 30°13' W 093°15'0 0.0
2018-Feb-24 00:30N 30°13' W 093°15'0 0.0
2018-Feb-23 23:51N 30°13' W 093°15'0 0.0
2018-Feb-23 23:27N 30°13' W 093°15'0 0.0
2018-Feb-23 19:07N 30°13' W 093°15'0 0.0
2018-Feb-23 18:41N 30°13' W 093°15'0 0.0
2018-Feb-23 18:15N 30°13' W 093°15'0 0.0
2018-Feb-23 04:52N 30°13' W 093°15'0 0.0
2018-Feb-23 04:30N 30°13' W 093°15'0 0.0
2018-Feb-23 03:58N 30°13' W 093°15'0 0.0
2018-Feb-23 03:30N 30°13' W 093°15'0 0.0
2018-Feb-23 02:54N 30°13' W 093°15'0 0.0
2018-Feb-23 02:24N 30°13' W 093°15'0 0.5
2018-Feb-23 01:58N 30°13' W 093°15'1 1.2
2018-Feb-23 01:20N 30°12' W 093°16'0 0.5
2018-Feb-23 00:56N 30°12' W 093°16'1 1.6
2018-Feb-23 00:18N 30°13' W 093°15'0 0.0
2018-Feb-23 00:00N 30°13' W 093°15'0 0.0
2018-Feb-22 23:28N 30°13' W 093°15'0 0.0
2018-Feb-22 22:56N 30°13' W 093°15'0 0.0
2018-Feb-22 22:30N 30°13' W 093°15'0 0.0
2018-Feb-22 04:22N 30°13' W 093°15'0 0.0
2018-Feb-22 03:36N 30°13' W 093°15'0 0.0
2018-Feb-22 00:31N 30°13' W 093°15'0 0.0
2018-Feb-21 20:05N 30°13' W 093°15'0 0.0
2018-Feb-21 19:22N 30°13' W 093°15'0 0.0
2018-Feb-21 19:00N 30°13' W 093°15'0 0.0
2018-Feb-21 18:28N 30°13' W 093°15'0 0.0
2018-Feb-21 18:01N 30°13' W 093°15'0 0.0
2018-Feb-21 17:30N 30°13' W 093°15'0 0.0
2018-Feb-21 17:01N 30°13' W 093°15'0 0.0
2018-Feb-21 16:31N 30°13' W 093°15'0 0.0
2018-Feb-21 16:01N 30°13' W 093°15'0 0.0
2018-Feb-21 15:31N 30°13' W 093°15'0 0.0
2018-Feb-21 15:01N 30°13' W 093°15'0 0.0
2018-Feb-21 14:31N 30°13' W 093°15'0 0.0
2018-Feb-21 14:01N 30°13' W 093°15'0 0.0
2018-Feb-21 13:31N 30°13' W 093°15'0 0.0
2018-Feb-21 13:01N 30°13' W 093°15'0 0.0
2018-Feb-21 12:30N 30°13' W 093°15'0 0.0
2018-Feb-21 12:00N 30°13' W 093°15'0 0.0
2018-Feb-21 11:31N 30°13' W 093°15'0 0.0
2018-Feb-21 11:01N 30°13' W 093°15'0 0.0
2018-Feb-21 10:30N 30°13' W 093°15'0 0.0
2018-Feb-21 10:01N 30°13' W 093°15'0 0.0
2018-Feb-21 09:31N 30°13' W 093°15'0 0.0
2018-Feb-21 09:01N 30°13' W 093°15'0 0.0
2018-Feb-21 08:30N 30°13' W 093°15'0 0.0
2018-Feb-21 08:01N 30°13' W 093°15'0 0.0
2018-Feb-21 07:31N 30°13' W 093°15'0 0.0
2018-Feb-21 07:01N 30°13' W 093°15'0 0.0
2018-Feb-21 06:31N 30°13' W 093°15'0 0.0
2018-Feb-21 06:01N 30°13' W 093°15'0 0.0
2018-Feb-21 05:31N 30°13' W 093°15'0 0.0
2018-Feb-21 05:01N 30°13' W 093°15'0 0.0
2018-Feb-21 04:30N 30°13' W 093°15'0 0.8
2018-Feb-21 03:59N 30°13' W 093°15'0 0.5
2018-Feb-21 03:31N 30°13' W 093°16'3 5.2
2018-Feb-21 03:01N 30°11' W 093°18'2 4.9
2018-Feb-21 02:31N 30°09' W 093°20'1 2.8
2018-Feb-21 02:01N 30°08' W 093°20'2 3.3
2018-Feb-21 01:31N 30°10' W 093°19'4 8.8
2018-Feb-21 01:00N 30°13' W 093°16'0 0.4
2018-Feb-21 00:25N 30°13' W 093°15'0 0.0
2018-Feb-21 00:00N 30°13' W 093°15'0 0.0
2018-Feb-20 23:29N 30°13' W 093°15'0 0.7
2018-Feb-20 23:01N 30°13' W 093°16'3 6.9
2018-Feb-20 22:31N 30°11' W 093°19'0 0.1
2018-Feb-20 22:01N 30°11' W 093°19'1 1.9
2018-Feb-20 21:31N 30°12' W 093°18'2 4.4
2018-Feb-20 21:01N 30°13' W 093°16'0 0.9
2018-Feb-20 20:30N 30°13' W 093°15'0 0.8
2018-Feb-20 20:01N 30°13' W 093°15'0 0.0
2018-Feb-20 19:30N 30°13' W 093°15'0 0.0
2018-Feb-20 19:00N 30°13' W 093°15'0 0.0
2018-Feb-20 18:30N 30°13' W 093°15'0 0.0
2018-Feb-20 18:00N 30°13' W 093°15'0 0.0
2018-Feb-20 17:30N 30°13' W 093°15'0 0.0
2018-Feb-20 17:00N 30°13' W 093°15'0 0.0
2018-Feb-20 16:30N 30°13' W 093°15'0 0.0
2018-Feb-20 16:01N 30°13' W 093°15'0 0.0
2018-Feb-20 15:31N 30°13' W 093°15'0 0.0
2018-Feb-20 15:01N 30°13' W 093°15'0 0.0
2018-Feb-20 14:31N 30°13' W 093°15'0 0.0
2018-Feb-20 14:01N 30°13' W 093°15'0 0.0
2018-Feb-20 13:30N 30°13' W 093°15'0 0.0
2018-Feb-20 13:01N 30°13' W 093°15'0 0.0
2018-Feb-20 12:31N 30°13' W 093°15'0 0.0
2018-Feb-20 12:00N 30°13' W 093°15'0 0.0
2018-Feb-20 11:31N 30°13' W 093°15'0 0.0
2018-Feb-20 11:00N 30°13' W 093°15'0 0.0
2018-Feb-20 10:31N 30°13' W 093°15'0 0.0
2018-Feb-20 10:01N 30°13' W 093°15'0 0.0
2018-Feb-20 09:30N 30°13' W 093°15'0 0.0
2018-Feb-20 09:00N 30°13' W 093°15'0 0.0
2018-Feb-20 08:31N 30°13' W 093°15'0 0.0
2018-Feb-20 07:48N 30°13' W 093°15'0 0.0
2018-Feb-20 07:31N 30°13' W 093°15'0 0.0
2018-Feb-20 07:01N 30°13' W 093°15'0 0.0
2018-Feb-20 06:31N 30°13' W 093°15'0 0.0
2018-Feb-20 06:00N 30°13' W 093°15'0 0.0
2018-Feb-20 05:31N 30°13' W 093°15'0 0.0
2018-Feb-20 05:01N 30°13' W 093°15'0 0.0
2018-Feb-20 04:31N 30°13' W 093°15'0 0.0
2018-Feb-20 04:01N 30°13' W 093°15'0 0.0
2018-Feb-20 03:31N 30°13' W 093°15'0 0.2
2018-Feb-20 03:01N 30°13' W 093°15'4 8.7
2018-Feb-20 02:31N 30°10' W 093°19'1 2.5
2018-Feb-20 02:01N 30°11' W 093°19'1 1.7
2018-Feb-20 01:31N 30°11' W 093°18'0 0.0
2018-Feb-20 01:01N 30°11' W 093°18'1 1.4
2018-Feb-20 00:30N 30°11' W 093°19'1 2.3
2018-Feb-20 00:01N 30°10' W 093°19'1 1.3
2018-Feb-19 23:30N 30°09' W 093°20'2 3.1
2018-Feb-19 23:00N 30°11' W 093°19'3 6.9
2018-Feb-19 22:30N 30°13' W 093°15'0 0.0
2018-Feb-19 22:01N 30°13' W 093°15'0 0.0
2018-Feb-19 21:30N 30°13' W 093°15'0 0.0
2018-Feb-19 21:01N 30°13' W 093°15'0 0.0
2018-Feb-19 20:30N 30°13' W 093°15'0 0.0
2018-Feb-19 19:57N 30°13' W 093°15'0 0.0
2018-Feb-19 19:30N 30°13' W 093°15'0 0.0
2018-Feb-19 19:00N 30°13' W 093°15'0 0.0
2018-Feb-19 18:31N 30°13' W 093°15'0 0.0
2018-Feb-19 18:00N 30°13' W 093°15'0 0.0
2018-Feb-19 17:30N 30°13' W 093°15'0 0.0
2018-Feb-19 17:00N 30°13' W 093°15'0 0.0
2018-Feb-19 16:31N 30°13' W 093°15'0 0.0
2018-Feb-19 16:00N 30°13' W 093°15'0 0.0
2018-Feb-19 15:31N 30°13' W 093°15'0 0.0
2018-Feb-19 15:01N 30°13' W 093°15'0 0.0
2018-Feb-19 14:26N 30°13' W 093°15'0 0.0
2018-Feb-19 13:55N 30°13' W 093°15'0 0.0
2018-Feb-19 13:30N 30°13' W 093°15'0 0.0
2018-Feb-19 13:00N 30°13' W 093°15'0 0.0
2018-Feb-19 12:31N 30°13' W 093°15'0 0.0
2018-Feb-19 12:01N 30°13' W 093°15'0 0.0
2018-Feb-19 11:30N 30°13' W 093°15'0 0.0
2018-Feb-19 11:00N 30°13' W 093°15'0 0.0
2018-Feb-19 10:30N 30°13' W 093°15'0 0.0
2018-Feb-19 10:01N 30°13' W 093°15'0 0.0
2018-Feb-19 09:28N 30°13' W 093°15'0 0.0
2018-Feb-19 09:00N 30°13' W 093°15'0 0.0
2018-Feb-19 08:30N 30°13' W 093°15'0 0.0
2018-Feb-19 08:00N 30°13' W 093°15'0 0.0
2018-Feb-19 07:30N 30°13' W 093°15'0 0.0
2018-Feb-19 07:00N 30°13' W 093°15'0 0.0
2018-Feb-19 06:31N 30°13' W 093°15'0 0.0
2018-Feb-19 06:00N 30°13' W 093°15'0 0.0
2018-Feb-19 05:31N 30°13' W 093°15'0 0.0
2018-Feb-19 05:01N 30°13' W 093°15'0 0.0
2018-Feb-19 04:31N 30°13' W 093°15'0 0.0
2018-Feb-19 04:00N 30°13' W 093°15'0 0.0
2018-Feb-19 03:31N 30°13' W 093°15'0 0.0
2018-Feb-19 03:00N 30°13' W 093°15'0 0.0
2018-Feb-19 02:30N 30°13' W 093°15'0 0.0
2018-Feb-19 02:01N 30°13' W 093°15'0 0.0
2018-Feb-19 01:30N 30°13' W 093°15'0 0.0
2018-Feb-19 01:01N 30°13' W 093°15'0 0.0
2018-Feb-19 00:30N 30°13' W 093°15'0 0.0
2018-Feb-19 00:01N 30°13' W 093°15'0 0.0
2018-Feb-18 23:30N 30°13' W 093°15'0 0.0
2018-Feb-18 23:01N 30°13' W 093°15'0 0.0
2018-Feb-18 22:30N 30°13' W 093°15'0 0.0
2018-Feb-18 22:01N 30°13' W 093°15'0 0.0
2018-Feb-18 21:30N 30°13' W 093°15'0 0.0
2018-Feb-18 21:01N 30°13' W 093°15'0 0.0
2018-Feb-18 20:31N 30°13' W 093°15'0 0.0
2018-Feb-18 20:01N 30°13' W 093°15'0 0.0
2018-Feb-18 19:31N 30°13' W 093°15'0 0.0
2018-Feb-18 19:01N 30°13' W 093°15'0 0.0
2018-Feb-18 18:30N 30°13' W 093°15'0 0.0
2018-Feb-18 18:00N 30°13' W 093°15'0 0.0
2018-Feb-18 17:31N 30°13' W 093°15'1 1.2
2018-Feb-18 17:01N 30°12' W 093°16'1 2.4
2018-Feb-18 16:30N 30°14' W 093°16'1 1.1
2018-Feb-18 16:01N 30°14' W 093°15'1 1.9
2018-Feb-18 15:31N 30°13' W 093°15'0 0.0
2018-Feb-18 15:01N 30°13' W 093°15'0 0.0
2018-Feb-18 14:31N 30°13' W 093°15'0 0.0
2018-Feb-18 14:01N 30°13' W 093°15'0 0.0
2018-Feb-18 13:30N 30°13' W 093°15'0 0.0
2018-Feb-18 13:01N 30°13' W 093°15'0 0.0
2018-Feb-18 12:31N 30°13' W 093°15'0 0.0
2018-Feb-18 12:01N 30°13' W 093°15'0 0.0
2018-Feb-18 11:31N 30°13' W 093°15'0 0.0
2018-Feb-18 11:01N 30°13' W 093°15'0 0.0
2018-Feb-18 10:31N 30°13' W 093°15'0 0.0
2018-Feb-18 10:00N 30°13' W 093°15'0 0.0
2018-Feb-18 09:30N 30°13' W 093°15'0 0.0
2018-Feb-18 09:00N 30°13' W 093°15'0 0.0
2018-Feb-18 08:30N 30°13' W 093°15'0 0.0
2018-Feb-18 08:01N 30°13' W 093°15'0 0.0
2018-Feb-18 07:31N 30°13' W 093°15'0 0.0
2018-Feb-18 07:01N 30°13' W 093°15'0 0.0
2018-Feb-18 06:31N 30°13' W 093°15'0 0.0
2018-Feb-18 06:01N 30°13' W 093°15'0 0.0
2018-Feb-18 05:31N 30°13' W 093°15'0 0.0
2018-Feb-18 05:01N 30°13' W 093°15'0 0.0
2018-Feb-18 04:30N 30°13' W 093°15'0 0.0
2018-Feb-18 04:01N 30°13' W 093°15'0 0.0
2018-Feb-18 03:31N 30°13' W 093°15'0 0.0
2018-Feb-18 03:00N 30°13' W 093°15'3 6.8
2018-Feb-18 02:30N 30°11' W 093°19'2 3.9
2018-Feb-18 02:01N 30°09' W 093°20'0 0.0
2018-Feb-18 01:31N 30°09' W 093°20'1 1.2
2018-Feb-18 01:01N 30°09' W 093°20'3 5.2
2018-Feb-18 00:30N 30°06' W 093°20'3 5.9
2018-Feb-18 00:01N 30°03' W 093°20'2 3.5
2018-Feb-17 23:30N 30°05' W 093°20'4 8.9
2018-Feb-17 23:00N 30°09' W 093°20'5 9.0
2018-Feb-17 22:30N 30°12' W 093°16'1 1.5
2018-Feb-17 22:00N 30°13' W 093°15'0 0.3
2018-Feb-17 21:30N 30°13' W 093°16'1 2.6
2018-Feb-17 21:00N 30°12' W 093°17'0 0.6
2018-Feb-17 20:31N 30°12' W 093°16'1 1.7
2018-Feb-17 20:00N 30°13' W 093°15'0 0.0
2018-Feb-17 19:30N 30°13' W 093°15'0 0.0
2018-Feb-17 18:59N 30°13' W 093°15'0 0.0
2018-Feb-17 18:30N 30°13' W 093°15'0 0.0
2018-Feb-17 18:00N 30°13' W 093°15'0 0.0
2018-Feb-17 17:28N 30°13' W 093°15'0 0.0
2018-Feb-17 17:00N 30°13' W 093°15'0 0.0
2018-Feb-17 16:30N 30°13' W 093°15'0 0.0
2018-Feb-17 16:01N 30°13' W 093°15'0 0.0
2018-Feb-17 15:30N 30°13' W 093°15'0 0.0
2018-Feb-17 15:00N 30°13' W 093°15'0 0.0
2018-Feb-17 14:31N 30°13' W 093°15'0 0.0
2018-Feb-17 14:00N 30°13' W 093°15'0 0.0
2018-Feb-17 13:31N 30°13' W 093°15'0 0.0
2018-Feb-17 13:00N 30°13' W 093°15'0 0.0
2018-Feb-17 12:30N 30°13' W 093°15'0 0.0
2018-Feb-17 12:00N 30°13' W 093°15'0 0.0
2018-Feb-17 11:30N 30°13' W 093°15'0 0.0
2018-Feb-17 11:00N 30°13' W 093°15'0 0.0
2018-Feb-17 10:30N 30°13' W 093°15'0 0.0
2018-Feb-17 10:00N 30°13' W 093°15'0 0.0
2018-Feb-17 09:30N 30°13' W 093°15'0 0.0
2018-Feb-17 08:59N 30°13' W 093°15'0 0.0
2018-Feb-17 08:30N 30°13' W 093°15'0 0.0
2018-Feb-17 08:00N 30°13' W 093°15'0 0.0
2018-Feb-17 07:30N 30°13' W 093°15'0 0.0
2018-Feb-17 07:00N 30°13' W 093°15'0 0.0
2018-Feb-17 06:30N 30°13' W 093°15'0 0.0
2018-Feb-17 06:00N 30°13' W 093°15'0 0.0
2018-Feb-17 05:30N 30°13' W 093°15'0 0.0
2018-Feb-17 04:59N 30°13' W 093°15'0 0.0
2018-Feb-17 04:30N 30°13' W 093°15'0 0.0
2018-Feb-17 04:00N 30°13' W 093°15'0 0.0
2018-Feb-17 03:30N 30°13' W 093°15'0 0.0
2018-Feb-17 03:00N 30°13' W 093°15'0 0.0
2018-Feb-17 02:30N 30°13' W 093°15'0 0.0
2018-Feb-17 02:00N 30°13' W 093°15'0 0.0
2018-Feb-17 01:28N 30°13' W 093°15'0 0.0
2018-Feb-17 01:01N 30°13' W 093°15'0 0.0
2018-Feb-17 00:31N 30°13' W 093°15'0 0.0
2018-Feb-16 23:59N 30°13' W 093°15'0 0.0
2018-Feb-16 23:17N 30°13' W 093°15'0 0.0
2018-Feb-16 23:00N 30°13' W 093°15'0 0.0
2018-Feb-16 22:29N 30°13' W 093°15'0 0.0
2018-Feb-16 22:00N 30°13' W 093°15'0 0.0
2018-Feb-16 21:31N 30°13' W 093°15'0 0.0
2018-Feb-16 20:59N 30°13' W 093°15'3 6.9
2018-Feb-16 20:30N 30°11' W 093°19'1 1.6
2018-Feb-16 20:01N 30°11' W 093°18'0 0.0
2018-Feb-16 19:31N 30°11' W 093°18'1 2.0
2018-Feb-16 19:00N 30°11' W 093°19'1 2.3
2018-Feb-16 18:31N 30°11' W 093°18'0 0.3
2018-Feb-16 18:01N 30°12' W 093°18'0 0.2
2018-Feb-16 17:31N 30°12' W 093°18'3 5.3
2018-Feb-16 17:01N 30°09' W 093°20'0 0.4
2018-Feb-16 16:31N 30°09' W 093°20'2 4.8
2018-Feb-16 16:01N 30°11' W 093°18'3 5.3
2018-Feb-16 15:30N 30°13' W 093°15'0 0.0
2018-Feb-16 15:00N 30°13' W 093°15'0 0.0
2018-Feb-16 14:29N 30°13' W 093°15'0 0.0
2018-Feb-16 14:00N 30°13' W 093°15'0 0.0
2018-Feb-16 13:30N 30°13' W 093°15'0 0.0
2018-Feb-16 13:00N 30°13' W 093°15'0 0.0
2018-Feb-16 12:30N 30°13' W 093°15'0 0.0
2018-Feb-16 12:00N 30°13' W 093°15'0 0.0
2018-Feb-16 11:30N 30°13' W 093°15'0 0.0
2018-Feb-16 11:00N 30°13' W 093°15'0 0.0
2018-Feb-16 10:30N 30°13' W 093°15'0 0.0
2018-Feb-16 10:00N 30°13' W 093°15'0 0.0
2018-Feb-16 09:30N 30°13' W 093°15'0 0.0
2018-Feb-16 09:00N 30°13' W 093°15'0 0.0
2018-Feb-16 08:30N 30°13' W 093°15'0 0.0
2018-Feb-16 08:00N 30°13' W 093°15'0 0.0
2018-Feb-16 07:30N 30°13' W 093°15'0 0.0
2018-Feb-16 07:00N 30°13' W 093°15'0 0.0
2018-Feb-16 06:29N 30°13' W 093°15'0 0.0
2018-Feb-16 05:59N 30°13' W 093°15'0 0.0
2018-Feb-16 05:28N 30°13' W 093°15'0 0.0
2018-Feb-16 04:55N 30°13' W 093°15'0 0.0
2018-Feb-16 04:29N 30°13' W 093°15'0 0.0
2018-Feb-16 04:00N 30°13' W 093°15'0 0.0
2018-Feb-16 03:30N 30°13' W 093°15'0 0.0
2018-Feb-16 03:01N 30°13' W 093°15'0 0.0
2018-Feb-16 02:30N 30°13' W 093°15'0 0.0
2018-Feb-16 02:00N 30°13' W 093°15'0 0.0
2018-Feb-16 01:30N 30°13' W 093°15'0 0.0
2018-Feb-16 01:00N 30°13' W 093°15'0 0.0
2018-Feb-16 00:29N 30°13' W 093°15'0 0.0
2018-Feb-15 23:56N 30°13' W 093°15'0 0.0
2018-Feb-15 23:30N 30°13' W 093°15'0 0.0
2018-Feb-15 23:00N 30°13' W 093°15'0 0.0
2018-Feb-15 22:28N 30°13' W 093°15'0 0.0
2018-Feb-15 22:01N 30°13' W 093°15'0 0.0
2018-Feb-15 21:30N 30°13' W 093°15'0 0.0
2018-Feb-15 21:00N 30°13' W 093°15'0 0.0
2018-Feb-15 20:27N 30°13' W 093°15'0 0.0
2018-Feb-15 20:00N 30°13' W 093°15'  

Dump ship's entire track history